Hanford, CA (93230)

07:29 PDT le 30 août 2014 (GMT -0700)
North Hanford | Change Station
CLOSE
Current Station
Stations météorologiques personnelles
Location: Hanford, CA
Altitude: 249 ft
Stations météo à proximité

Alt. 249 ft 36.36 °N, 119.66 °W | Updated 4 seconds ago

Clear
Ciel dégagé
67.1 ° F
Paraît 67.1 ° F
N
0.0
Vent Variable Vent de NNO
Gusts 1.7 mph

Aujourd'hui
Haut(e) -- | Bas -- ° F
--% Risque de précip.
Hier
Haut(e) -- | Bas -- ° F
Precip. -- pouce
6:28 AM 7:29 PM
Lune montante, 22% visible
Pression 29.87 pouce
Visibilité 10.0 Miles terrestres
Nuages Ciel dégagé
Point de rosée 58 ° F
Humidité 73%
Précipitations 0.00 pouce
Profondeur de la couche neigeuse Non disponible.
UV 0 sur 12
Pollen 9.90 sur 12
Qualité de l'air Non disponible.
Flu Activity Non disponible.
METAR KHJO 301353Z AUTO 32003KT 10SM CLR 21/12 A2987 RMK AO2 SLP113 T02060122 $

More Conditions Fewer Conditions

Pression 29.87 pouce
Visibilité 10.0 Miles terrestres
Nuages Ciel dégagé
Point de rosée 58 ° F
Humidité 73%
Précipitations 0.00 pouce
Profondeur de la couche neigeuse Non disponible.
UV 0 sur 12
Pollen 9.90 sur 12
Qualité de l'air Non disponible.
Flu Activity Non disponible.
METAR KHJO 301353Z AUTO 32003KT 10SM CLR 21/12 A2987 RMK AO2 SLP113 T02060122 $

More Conditions Fewer Conditions

10-Day Weather Forecast

Almanac

Astronomie

Aug. 30, 2014 Lever Coucher
Temps réel 06:28 PDT 19:29 PDT
Crépuscule civil 06:02 PDT 19:55 PDT
Crépuscule nautique 05:30 PDT 20:26 PDT
Crépuscule astronomique 04:58 PDT 20:59 PDT
Lune 11:11 PDT 22:16 PDT
Durée de lumière visible 13h 53m
Longueur du jour
13h 00m
Tomorrow will be 2m 12s shorter.
Lune montante, 22% of the Moon is Illuminated
Aujourd'hui
Lune montante
Sep 2
Premier quartier
Sep 8
Pleine lune
Sep 15
Dernier quartier
Sep 24
Nouveau

Extrêmes aujourd'hui

State Highs State Lows

Community

WunderPhotos

Upload Photos

1,748,519 Photos téléchargées !

WunderBlogs® & News

By Dr. Jeff Masters
Director of Meteorology, Weather Underground
By Kari Strenfel
Meteorologist, Weather Underground
By Christopher C. Burt
Weather Historian, Weather Underground
August 30, 2014
August 30, 2014
August 30, 2014

Nearby

Qualité de l'air

  Qualité de l'air Indice de la qualité de l'air Polluant
samedi Moyen
PM10
dimanche Moyen
PM10
lundi Moyen
PM10
mardi Moyen
PM10
mercredi Moyen
PM10

Épaisseur de neige

Station Depth Altitude
Leavitt Lake 0 in 9400 ft
Leavitt Meadows 1 in 7200 ft
Summit Meadow 1 in 9122 ft
Monitor Pass 0 in 8350 ft
Forestdale Creek 0 in 8029 ft

Activité sismique

Ville Distance Mag. Time & Date
Ridgemark, California 96 Miles terrestres 3.4 16:32 PDT
2014-08-29
Ridgemark, California 96 Miles terrestres 3.0 14:44 PDT
2014-08-29
Orange Cove, California 29 Miles terrestres 2.5 07:48 PDT
2014-08-29
Minimum magnitude displayed is 2.5.

Températures des eaux côtières

Lieu Température
Aucun rapport de station

Stations météo à proximité